createdAt,value
2023-02-19T00:00:11.089Z,100765.69
2023-02-19T00:01:11.377Z,100771.99
2023-02-19T00:02:11.082Z,100767.18
2023-02-19T00:03:11.104Z,100775.34
2023-02-19T00:04:15.090Z,100773.21
2023-02-19T00:05:11.115Z,100778.16
2023-02-19T00:06:11.079Z,100776.57
2023-02-19T00:07:11.077Z,100775.88
2023-02-19T00:08:11.087Z,100783.33
2023-02-19T00:09:11.076Z,100783.73
2023-02-19T00:10:11.080Z,100784.38
2023-02-19T00:11:13.090Z,100785.94
2023-02-19T00:12:11.080Z,100783.93
2023-02-19T00:13:11.090Z,100788.01
2023-02-19T00:14:11.087Z,100788.46
2023-02-19T00:15:11.080Z,100784.29
2023-02-19T00:16:15.083Z,100787.80
2023-02-19T00:17:11.089Z,100794.48
2023-02-19T00:18:11.085Z,100792.88
2023-02-19T00:19:13.083Z,100794.45
2023-02-19T00:20:11.083Z,100795.39
2023-02-19T00:21:11.545Z,100799.73
2023-02-19T00:22:11.084Z,100798.80
2023-02-19T00:23:11.080Z,100803.04
2023-02-19T00:24:12.083Z,100805.41
2023-02-19T00:25:11.079Z,100813.01
2023-02-19T00:26:18.304Z,100812.79
2023-02-19T00:27:13.095Z,100809.70
2023-02-19T00:28:11.078Z,100811.19
2023-02-19T00:29:14.098Z,100813.14
2023-02-19T00:30:11.127Z,100813.52
2023-02-19T00:31:15.343Z,100804.90
2023-02-19T00:32:11.106Z,100808.99
2023-02-19T00:33:11.091Z,100810.52
2023-02-19T00:34:11.094Z,100818.97
2023-02-19T00:35:11.084Z,100817.71
2023-02-19T00:36:11.086Z,100828.21
2023-02-19T00:37:11.087Z,100830.83
2023-02-19T00:38:11.084Z,100824.16
2023-02-19T00:39:12.103Z,100833.16
2023-02-19T00:40:11.085Z,100830.45
2023-02-19T00:41:15.082Z,100833.23
2023-02-19T00:42:11.084Z,100833.82
2023-02-19T00:43:11.087Z,100837.95
2023-02-19T00:44:11.087Z,100839.95
2023-02-19T00:45:11.086Z,100838.05
2023-02-19T00:46:11.118Z,100839.08
2023-02-19T00:47:11.087Z,100842.48
2023-02-19T00:48:11.086Z,100839.36
2023-02-19T00:49:17.093Z,100839.86
2023-02-19T00:50:11.089Z,100839.71
2023-02-19T00:51:11.450Z,100838.79
2023-02-19T00:52:11.095Z,100844.12
2023-02-19T00:53:11.089Z,100841.01
2023-02-19T00:54:11.090Z,100843.30
2023-02-19T00:55:11.096Z,100841.45
2023-02-19T00:56:11.088Z,100847.00
2023-02-19T00:57:11.091Z,100846.75
2023-02-19T00:58:11.096Z,100845.72
2023-02-19T00:59:11.098Z,100849.98
2023-02-19T01:00:11.099Z,100848.10
2023-02-19T01:01:11.373Z,100849.47
2023-02-19T01:02:11.068Z,100850.97
2023-02-19T01:03:11.072Z,100850.65
2023-02-19T01:04:11.070Z,100849.73
2023-02-19T01:05:11.064Z,100847.55
2023-02-19T01:06:11.065Z,100847.49
2023-02-19T01:07:11.070Z,100846.17
2023-02-19T01:08:11.062Z,100846.59
2023-02-19T01:09:11.066Z,100851.91
2023-02-19T01:10:11.073Z,100850.26
2023-02-19T01:11:11.504Z,100847.88
2023-02-19T01:12:11.064Z,100845.59
2023-02-19T01:13:11.084Z,100845.59
2023-02-19T01:14:11.064Z,100848.36
2023-02-19T01:15:11.065Z,100848.95
2023-02-19T01:16:16.184Z,100851.14
2023-02-19T01:17:11.063Z,100852.25
2023-02-19T01:18:11.071Z,100853.14
2023-02-19T01:19:11.292Z,100846.88
2023-02-19T01:20:11.065Z,100847.73
2023-02-19T01:21:14.058Z,100845.05
2023-02-19T01:22:11.061Z,100847.03
2023-02-19T01:23:11.069Z,100845.02
2023-02-19T01:24:11.063Z,100846.38
2023-02-19T01:25:11.067Z,100844.46
2023-02-19T01:26:12.066Z,100847.96
2023-02-19T01:27:11.061Z,100843.39
2023-02-19T01:28:11.061Z,100844.59
2023-02-19T01:29:11.064Z,100839.46
2023-02-19T01:30:11.079Z,100837.49
2023-02-19T01:31:12.607Z,100840.87
2023-02-19T01:32:11.200Z,100835.27
2023-02-19T01:33:11.062Z,100835.80
2023-02-19T01:34:11.072Z,100834.50
2023-02-19T01:35:11.069Z,100839.19
2023-02-19T01:36:11.062Z,100837.16
2023-02-19T01:37:12.092Z,100832.87
2023-02-19T01:38:12.075Z,100836.25
2023-02-19T01:39:11.065Z,100838.08
2023-02-19T01:40:11.060Z,100839.48
2023-02-19T01:41:12.401Z,100845.56
2023-02-19T01:42:15.065Z,100850.09
2023-02-19T01:43:15.068Z,100851.39
2023-02-19T01:44:19.068Z,100861.71
2023-02-19T01:45:23.099Z,100864.43
2023-02-19T01:46:11.120Z,100871.68
2023-02-19T01:47:11.069Z,100873.00
2023-02-19T01:48:19.068Z,100874.73
2023-02-19T01:49:16.069Z,100871.20
2023-02-19T01:50:11.069Z,100872.84
2023-02-19T01:51:16.070Z,100871.29
2023-02-19T01:52:19.074Z,100881.00
2023-02-19T01:53:13.079Z,100871.20
2023-02-19T01:54:11.078Z,100873.02
2023-02-19T01:55:12.080Z,100873.76
2023-02-19T01:56:12.071Z,100876.73
2023-02-19T01:57:14.067Z,100881.17
2023-02-19T01:58:11.068Z,100881.97
2023-02-19T01:59:11.083Z,100881.83
2023-02-19T02:00:11.065Z,100879.89
2023-02-19T02:01:11.533Z,100881.93
2023-02-19T02:02:11.099Z,100878.18
2023-02-19T02:03:11.067Z,100883.30
2023-02-19T02:04:12.072Z,100881.25
2023-02-19T02:05:21.109Z,100879.25
2023-02-19T02:06:18.069Z,100878.83
2023-02-19T02:07:15.067Z,100880.47
2023-02-19T02:08:15.069Z,100876.72
2023-02-19T02:09:15.083Z,100878.59
2023-02-19T02:10:15.072Z,100878.59
2023-02-19T02:11:11.364Z,100881.35
2023-02-19T02:12:11.079Z,100884.46
2023-02-19T02:13:11.072Z,100892.94
2023-02-19T02:14:11.069Z,100893.17
2023-02-19T02:15:11.070Z,100895.30
2023-02-19T02:16:19.143Z,100899.12
2023-02-19T02:17:19.077Z,100901.96
2023-02-19T02:18:19.071Z,100903.92
2023-02-19T02:19:19.073Z,100906.27
2023-02-19T02:20:19.081Z,100915.69
2023-02-19T02:21:19.080Z,100910.79
2023-02-19T02:22:19.080Z,100912.29
2023-02-19T02:23:19.073Z,100910.70
2023-02-19T02:24:19.081Z,100908.71
2023-02-19T02:25:19.075Z,100907.50
2023-02-19T02:26:21.102Z,100905.69
2023-02-19T02:27:21.097Z,100904.49
2023-02-19T02:28:19.077Z,100908.31
2023-02-19T02:29:19.100Z,100906.04
2023-02-19T02:30:19.129Z,100907.38
2023-02-19T02:31:16.162Z,100906.63
2023-02-19T02:32:17.125Z,100908.26
2023-02-19T02:33:19.083Z,100908.33
2023-02-19T02:34:18.105Z,100909.52
2023-02-19T02:35:12.076Z,100909.79
2023-02-19T02:36:18.076Z,100906.66
2023-02-19T02:37:11.080Z,100911.77
2023-02-19T02:38:12.076Z,100913.74
2023-02-19T02:39:12.078Z,100912.79
2023-02-19T02:40:11.076Z,100906.16
2023-02-19T02:41:11.476Z,100909.42
2023-02-19T02:42:15.080Z,100911.50
2023-02-19T02:43:11.077Z,100915.80
2023-02-19T02:44:11.085Z,100915.85
2023-02-19T02:45:23.096Z,100919.55
2023-02-19T02:46:13.076Z,100917.89
2023-02-19T02:47:11.078Z,100923.00
2023-02-19T02:48:19.077Z,100924.81
2023-02-19T02:49:16.073Z,100929.89
2023-02-19T02:50:23.080Z,100931.07
2023-02-19T02:51:19.078Z,100935.14
2023-02-19T02:52:15.085Z,100931.82
2023-02-19T02:53:24.078Z,100929.10
2023-02-19T02:54:18.075Z,100925.86
2023-02-19T02:55:11.082Z,100922.20
2023-02-19T02:56:11.085Z,100923.64
2023-02-19T02:57:11.078Z,100925.85
2023-02-19T02:58:11.086Z,100928.66
2023-02-19T02:59:12.082Z,100928.90
2023-02-19T03:00:11.080Z,100927.45
2023-02-19T03:01:20.141Z,100924.07
2023-02-19T03:02:20.143Z,100932.95
2023-02-19T03:03:11.087Z,100934.36
2023-02-19T03:04:15.075Z,100932.44
2023-02-19T03:05:22.080Z,100935.30
2023-02-19T03:06:13.077Z,100936.99
2023-02-19T03:07:11.087Z,100939.18
2023-02-19T03:08:16.076Z,100939.14
2023-02-19T03:09:19.079Z,100938.77
2023-02-19T03:10:13.089Z,100945.00
2023-02-19T03:11:15.079Z,100944.68
2023-02-19T03:12:17.077Z,100948.19
2023-02-19T03:13:25.079Z,100944.87
2023-02-19T03:14:21.084Z,100947.01
2023-02-19T03:15:15.091Z,100952.79
2023-02-19T03:16:20.087Z,100955.04
2023-02-19T03:17:21.095Z,100952.75
2023-02-19T03:18:16.079Z,100953.32
2023-02-19T03:19:16.085Z,100950.32
2023-02-19T03:20:13.087Z,100948.90
2023-02-19T03:21:11.403Z,100955.85
2023-02-19T03:22:21.085Z,100955.80
2023-02-19T03:23:11.104Z,100956.76
2023-02-19T03:24:15.085Z,100958.64
2023-02-19T03:25:18.102Z,100955.24
2023-02-19T03:26:11.076Z,100954.73
2023-02-19T03:27:12.086Z,100949.33
2023-02-19T03:28:12.080Z,100956.86
2023-02-19T03:29:15.072Z,100954.42
2023-02-19T03:30:17.113Z,100951.20
2023-02-19T03:31:14.259Z,100949.91
2023-02-19T03:32:16.099Z,100956.06
2023-02-19T03:33:18.076Z,100959.41
2023-02-19T03:34:18.080Z,100961.60
2023-02-19T03:35:16.073Z,100962.54
2023-02-19T03:36:13.081Z,100963.71
2023-02-19T03:37:17.085Z,100966.68
2023-02-19T03:38:19.086Z,100965.80
2023-02-19T03:39:12.104Z,100973.86
2023-02-19T03:40:11.078Z,100971.34
2023-02-19T03:41:19.081Z,100972.26
2023-02-19T03:42:21.083Z,100973.88
2023-02-19T03:43:19.076Z,100971.99
2023-02-19T03:44:21.098Z,100972.53
2023-02-19T03:45:19.081Z,100973.69
2023-02-19T03:46:16.085Z,100972.91
2023-02-19T03:47:20.105Z,100974.14
2023-02-19T03:48:21.086Z,100980.55
2023-02-19T03:49:21.095Z,100988.58
2023-02-19T03:50:21.079Z,100993.27
2023-02-19T03:51:19.103Z,101002.37
2023-02-19T03:52:18.085Z,101004.22
2023-02-19T03:53:19.078Z,101007.69
2023-02-19T03:54:19.082Z,101010.51
2023-02-19T03:55:19.084Z,101017.12
2023-02-19T03:56:19.095Z,101020.59
2023-02-19T03:57:18.097Z,101016.68
2023-02-19T03:58:19.082Z,101024.89
2023-02-19T03:59:19.081Z,101023.70
2023-02-19T04:00:20.068Z,101020.24
2023-02-19T04:01:14.062Z,101022.86
2023-02-19T04:02:17.117Z,101023.36
2023-02-19T04:03:20.071Z,101019.73
2023-02-19T04:04:18.123Z,101019.43
2023-02-19T04:05:16.064Z,101028.82
2023-02-19T04:06:18.066Z,101028.79
2023-02-19T04:07:11.064Z,101027.29
2023-02-19T04:08:17.065Z,101027.13
2023-02-19T04:09:12.064Z,101027.18
2023-02-19T04:10:11.075Z,101029.84
2023-02-19T04:11:11.300Z,101023.50
2023-02-19T04:12:11.065Z,101020.22
2023-02-19T04:13:19.065Z,101016.04
2023-02-19T04:14:19.065Z,101018.54
2023-02-19T04:15:14.067Z,101018.40
2023-02-19T04:16:15.075Z,101011.18
2023-02-19T04:17:21.066Z,101017.11
2023-02-19T04:18:17.067Z,101018.63
2023-02-19T04:19:13.070Z,101026.07
2023-02-19T04:20:11.068Z,101021.12
2023-02-19T04:21:11.376Z,101026.43
2023-02-19T04:22:11.067Z,101023.86
2023-02-19T04:23:11.067Z,101027.88
2023-02-19T04:24:17.066Z,101026.59
2023-02-19T04:25:11.071Z,101033.56
2023-02-19T04:26:11.075Z,101038.13
2023-02-19T04:27:11.066Z,101038.21
2023-02-19T04:28:11.060Z,101039.41
2023-02-19T04:29:11.064Z,101048.29
2023-02-19T04:30:11.174Z,101045.00
2023-02-19T04:31:11.436Z,101043.75
2023-02-19T04:32:11.065Z,101042.47
2023-02-19T04:33:11.065Z,101047.29
2023-02-19T04:34:11.062Z,101050.93
2023-02-19T04:35:11.082Z,101046.45
2023-02-19T04:36:11.064Z,101053.43
2023-02-19T04:37:11.061Z,101060.65
2023-02-19T04:38:11.062Z,101062.41
2023-02-19T04:39:11.064Z,101070.94
2023-02-19T04:40:11.069Z,101072.68
2023-02-19T04:41:11.407Z,101078.36
2023-02-19T04:42:11.068Z,101088.75
2023-02-19T04:43:11.071Z,101087.89
2023-02-19T04:44:11.064Z,101093.78
2023-02-19T04:45:11.070Z,101096.19
2023-02-19T04:46:11.108Z,101098.95
2023-02-19T04:47:11.061Z,101101.92
2023-02-19T04:48:11.089Z,101109.72
2023-02-19T04:49:11.083Z,101115.15
2023-02-19T04:50:11.063Z,101112.07
2023-02-19T04:51:11.367Z,101110.30
2023-02-19T04:52:11.093Z,101115.21
2023-02-19T04:53:11.068Z,101112.57
2023-02-19T04:54:11.080Z,101112.14
2023-02-19T04:55:11.067Z,101113.14
2023-02-19T04:56:11.065Z,101114.02
2023-02-19T04:57:11.067Z,101124.02
2023-02-19T04:58:11.063Z,101117.26
2023-02-19T04:59:11.073Z,101111.06
2023-02-19T05:00:11.071Z,101118.50
2023-02-19T05:01:11.383Z,101117.73
2023-02-19T05:02:11.063Z,101122.21
2023-02-19T05:03:11.069Z,101124.61
2023-02-19T05:04:11.133Z,101118.99
2023-02-19T05:05:11.066Z,101118.42
2023-02-19T05:06:11.070Z,101117.00
2023-02-19T05:07:11.065Z,101120.50
2023-02-19T05:08:11.068Z,101121.05
2023-02-19T05:09:11.074Z,101120.80
2023-02-19T05:10:11.075Z,101125.31
2023-02-19T05:11:11.338Z,101131.80
2023-02-19T05:12:11.070Z,101132.60
2023-02-19T05:13:11.083Z,101132.84
2023-02-19T05:14:11.072Z,101136.18
2023-02-19T05:15:11.071Z,101141.27
2023-02-19T05:16:12.117Z,101142.42
2023-02-19T05:17:11.064Z,101142.63
2023-02-19T05:18:11.071Z,101148.99
2023-02-19T05:19:12.220Z,101151.58
2023-02-19T05:20:11.067Z,101154.97
2023-02-19T05:21:11.441Z,101164.52
2023-02-19T05:22:11.061Z,101165.79
2023-02-19T05:23:11.067Z,101167.68
2023-02-19T05:24:11.073Z,101164.88
2023-02-19T05:25:11.062Z,101164.83
2023-02-19T05:26:16.064Z,101169.64
2023-02-19T05:27:11.073Z,101169.45
2023-02-19T05:28:15.068Z,101172.63
2023-02-19T05:29:11.066Z,101170.68
2023-02-19T05:30:11.115Z,101179.13
2023-02-19T05:31:11.368Z,101180.48
2023-02-19T05:32:11.085Z,101180.50
2023-02-19T05:33:11.075Z,101179.91
2023-02-19T05:34:11.067Z,101180.84
2023-02-19T05:35:11.062Z,101181.27
2023-02-19T05:36:11.072Z,101181.75
2023-02-19T05:37:11.062Z,101181.65
2023-02-19T05:38:11.066Z,101189.45
2023-02-19T05:39:13.074Z,101185.57
2023-02-19T05:40:11.065Z,101190.10
2023-02-19T05:41:17.080Z,101188.53
2023-02-19T05:42:11.064Z,101195.93
2023-02-19T05:43:11.077Z,101197.25
2023-02-19T05:44:11.072Z,101194.38
2023-02-19T05:45:11.070Z,101199.74
2023-02-19T05:46:11.109Z,101200.00
2023-02-19T05:47:11.065Z,101202.29
2023-02-19T05:48:11.065Z,101202.43
2023-02-19T05:49:11.080Z,101197.97
2023-02-19T05:50:11.069Z,101206.11
2023-02-19T05:51:15.077Z,101204.91
2023-02-19T05:52:11.068Z,101196.04
2023-02-19T05:53:11.064Z,101199.75
2023-02-19T05:54:11.068Z,101196.14
2023-02-19T05:55:11.084Z,101196.19
2023-02-19T05:56:19.067Z,101185.98
2023-02-19T05:57:11.063Z,101194.37
2023-02-19T05:58:11.070Z,101192.29
2023-02-19T05:59:18.066Z,101185.07
2023-02-19T06:00:11.067Z,101181.34
2023-02-19T06:01:15.086Z,101183.91
2023-02-19T06:02:11.077Z,101173.98
2023-02-19T06:03:11.067Z,101172.60
2023-02-19T06:04:11.096Z,101170.36
2023-02-19T06:05:11.074Z,101167.32
2023-02-19T06:06:12.065Z,101173.40
2023-02-19T06:07:11.067Z,101176.24
2023-02-19T06:08:13.077Z,101181.93
2023-02-19T06:09:11.076Z,101180.74
2023-02-19T06:10:11.083Z,101189.09
2023-02-19T06:11:11.286Z,101191.84
2023-02-19T06:12:11.068Z,101189.77
2023-02-19T06:13:11.082Z,101194.72
2023-02-19T06:14:11.078Z,101201.86
2023-02-19T06:15:11.067Z,101202.06
2023-02-19T06:16:11.135Z,101202.06
2023-02-19T06:17:11.076Z,101199.73
2023-02-19T06:18:11.068Z,101203.98
2023-02-19T06:19:11.076Z,101204.87
2023-02-19T06:20:11.076Z,101207.23
2023-02-19T06:21:11.366Z,101209.39
2023-02-19T06:22:11.071Z,101224.63
2023-02-19T06:23:11.087Z,101221.41
2023-02-19T06:24:11.069Z,101228.37
2023-02-19T06:25:11.074Z,101236.17
2023-02-19T06:26:19.081Z,101238.10
2023-02-19T06:27:11.069Z,101235.34
2023-02-19T06:28:11.076Z,101235.87
2023-02-19T06:29:11.079Z,101230.93
2023-02-19T06:30:11.109Z,101229.61
2023-02-19T06:31:11.541Z,101236.02
2023-02-19T06:32:11.262Z,101237.67
2023-02-19T06:33:11.075Z,101236.10
2023-02-19T06:34:11.079Z,101230.10
2023-02-19T06:35:11.073Z,101232.68
2023-02-19T06:36:12.076Z,101228.52
2023-02-19T06:37:11.074Z,101225.79
2023-02-19T06:38:11.073Z,101224.94
2023-02-19T06:39:11.084Z,101218.56
2023-02-19T06:40:11.082Z,101220.35
2023-02-19T06:41:11.451Z,101219.26
2023-02-19T06:42:11.077Z,101218.74
2023-02-19T06:43:11.073Z,101224.77
2023-02-19T06:44:11.079Z,101228.29
2023-02-19T06:45:11.077Z,101231.28
2023-02-19T06:46:11.115Z,101228.11
2023-02-19T06:47:11.079Z,101226.85
2023-02-19T06:48:11.083Z,101226.98
2023-02-19T06:49:11.077Z,101219.65
2023-02-19T06:50:11.079Z,101217.57
2023-02-19T06:51:15.078Z,101224.31
2023-02-19T06:52:11.078Z,101226.53
2023-02-19T06:53:11.077Z,101226.98
2023-02-19T06:54:11.079Z,101224.98
2023-02-19T06:55:11.078Z,101221.84
2023-02-19T06:56:19.087Z,101223.62
2023-02-19T06:57:11.089Z,101228.49
2023-02-19T06:58:11.080Z,101227.26
2023-02-19T06:59:15.078Z,101222.44
2023-02-19T07:00:11.089Z,101225.59
2023-02-19T07:01:12.539Z,101229.59
2023-02-19T07:02:12.067Z,101236.49
2023-02-19T07:03:11.073Z,101233.88
2023-02-19T07:04:11.165Z,101236.93
2023-02-19T07:05:11.067Z,101241.21
2023-02-19T07:06:11.074Z,101238.57
2023-02-19T07:07:12.071Z,101234.61
2023-02-19T07:08:11.068Z,101236.56
2023-02-19T07:09:11.065Z,101236.26
2023-02-19T07:10:11.064Z,101236.86
2023-02-19T07:11:11.419Z,101244.81
2023-02-19T07:12:11.065Z,101252.04
2023-02-19T07:13:11.062Z,101263.38
2023-02-19T07:14:15.059Z,101265.28
2023-02-19T07:15:11.075Z,101258.33
2023-02-19T07:16:11.187Z,101242.05
2023-02-19T07:17:11.062Z,101241.23
2023-02-19T07:18:14.068Z,101244.92
2023-02-19T07:19:11.067Z,101247.57
2023-02-19T07:20:11.062Z,101251.29
2023-02-19T07:21:12.541Z,101254.52
2023-02-19T07:22:11.066Z,101255.41
2023-02-19T07:23:11.057Z,101263.04
2023-02-19T07:24:11.067Z,101269.74
2023-02-19T07:25:11.062Z,101275.93
2023-02-19T07:26:11.059Z,101274.52
2023-02-19T07:27:11.060Z,101265.16
2023-02-19T07:28:11.062Z,101266.73
2023-02-19T07:29:11.060Z,101272.80
2023-02-19T07:30:11.131Z,101279.48
2023-02-19T07:31:11.648Z,101281.37
2023-02-19T07:32:11.111Z,101287.90
2023-02-19T07:33:11.060Z,101279.20
2023-02-19T07:34:11.062Z,101281.09
2023-02-19T07:35:11.064Z,101289.07
2023-02-19T07:36:11.061Z,101302.42
2023-02-19T07:37:11.074Z,101306.22
2023-02-19T07:38:11.061Z,101315.88
2023-02-19T07:39:12.063Z,101316.03
2023-02-19T07:40:11.072Z,101321.33
2023-02-19T07:41:11.355Z,101316.50
2023-02-19T07:42:11.066Z,101317.84
2023-02-19T07:43:11.074Z,101315.24
2023-02-19T07:44:11.073Z,101313.46
2023-02-19T07:45:11.074Z,101319.44
2023-02-19T07:46:11.073Z,101312.52
2023-02-19T07:47:11.065Z,101305.71
2023-02-19T07:48:11.070Z,101292.46
2023-02-19T07:49:11.075Z,101284.15
2023-02-19T07:50:13.879Z,101272.84
2023-02-19T07:51:12.327Z,101257.88
2023-02-19T07:52:11.068Z,101248.96
2023-02-19T07:53:11.068Z,101247.85
2023-02-19T07:54:11.065Z,101244.96
2023-02-19T07:55:11.073Z,101232.20
2023-02-19T07:56:12.072Z,101233.25
2023-02-19T07:57:11.081Z,101225.65
2023-02-19T07:58:11.069Z,101221.09
2023-02-19T07:59:11.071Z,101226.07
2023-02-19T08:00:11.071Z,101227.12
2023-02-19T08:01:17.178Z,101237.35
2023-02-19T08:02:18.077Z,101250.86
2023-02-19T08:03:11.159Z,101263.30
2023-02-19T08:04:11.073Z,101275.77
2023-02-19T08:05:11.078Z,101284.15
2023-02-19T08:06:11.099Z,101290.28
2023-02-19T08:07:11.067Z,101291.08
2023-02-19T08:08:11.077Z,101295.37
2023-02-19T08:09:11.073Z,101298.20
2023-02-19T08:10:15.073Z,101304.55
2023-02-19T08:11:15.073Z,101305.62
2023-02-19T08:12:15.078Z,101310.80
2023-02-19T08:13:17.078Z,101307.04
2023-02-19T08:14:11.068Z,101310.32
2023-02-19T08:15:11.072Z,101307.58
2023-02-19T08:16:18.399Z,101303.61
2023-02-19T08:17:13.184Z,101300.29
2023-02-19T08:18:11.080Z,101296.06
2023-02-19T08:19:11.074Z,101289.73
2023-02-19T08:20:11.065Z,101292.25
2023-02-19T08:21:11.415Z,101290.31
2023-02-19T08:22:11.080Z,101293.69
2023-02-19T08:23:11.066Z,101291.83
2023-02-19T08:24:11.071Z,101295.06
2023-02-19T08:25:11.078Z,101291.64
2023-02-19T08:26:11.080Z,101297.35
2023-02-19T08:27:11.078Z,101297.42
2023-02-19T08:28:11.070Z,101303.31
2023-02-19T08:29:11.070Z,101303.12
2023-02-19T08:30:11.095Z,101298.42
2023-02-19T08:31:11.413Z,101300.31
2023-02-19T08:32:11.092Z,101298.82
2023-02-19T08:33:11.071Z,101295.25
2023-02-19T08:34:11.077Z,101299.70
2023-02-19T08:35:11.075Z,101306.06
2023-02-19T08:36:11.094Z,101307.56
2023-02-19T08:37:11.073Z,101305.85
2023-02-19T08:38:11.068Z,101307.93
2023-02-19T08:39:11.069Z,101304.05
2023-02-19T08:40:11.076Z,101312.39
2023-02-19T08:41:11.615Z,101314.00
2023-02-19T08:42:11.070Z,101316.20
2023-02-19T08:43:14.073Z,101314.04
2023-02-19T08:44:11.068Z,101311.20
2023-02-19T08:45:11.073Z,101312.91
2023-02-19T08:46:11.295Z,101313.00
2023-02-19T08:47:11.070Z,101316.79
2023-02-19T08:48:11.077Z,101315.40
2023-02-19T08:49:11.082Z,101316.15
2023-02-19T08:50:11.075Z,101315.27
2023-02-19T08:51:12.465Z,101323.57
2023-02-19T08:52:11.077Z,101324.87
2023-02-19T08:53:11.071Z,101322.62
2023-02-19T08:54:11.096Z,101328.83
2023-02-19T08:55:11.078Z,101336.29
2023-02-19T08:56:15.070Z,101334.77
2023-02-19T08:57:11.072Z,101339.35
2023-02-19T08:58:11.077Z,101337.39
2023-02-19T08:59:11.067Z,101335.76
2023-02-19T09:00:11.071Z,101335.80
2023-02-19T09:01:11.531Z,101336.50
2023-02-19T09:02:11.067Z,101338.67
2023-02-19T09:03:11.070Z,101338.98
2023-02-19T09:04:13.125Z,101341.84
2023-02-19T09:05:13.069Z,101343.90
2023-02-19T09:06:15.071Z,101342.73
2023-02-19T09:07:13.071Z,101340.01
2023-02-19T09:08:11.073Z,101335.33
2023-02-19T09:09:11.069Z,101339.95
2023-02-19T09:10:11.068Z,101336.71
2023-02-19T09:11:11.405Z,101343.96
2023-02-19T09:12:11.070Z,101339.50
2023-02-19T09:13:11.075Z,101344.91
2023-02-19T09:14:11.070Z,101347.11
2023-02-19T09:15:11.074Z,101345.82
2023-02-19T09:16:11.074Z,101351.46
2023-02-19T09:17:11.075Z,101350.66
2023-02-19T09:18:11.069Z,101358.12
2023-02-19T09:19:11.069Z,101359.14
2023-02-19T09:20:11.076Z,101360.80
2023-02-19T09:21:11.440Z,101358.49
2023-02-19T09:22:11.071Z,101350.96
2023-02-19T09:23:11.074Z,101349.74
2023-02-19T09:24:11.073Z,101347.48
2023-02-19T09:25:11.072Z,101346.69
2023-02-19T09:26:12.097Z,101342.31
2023-02-19T09:27:14.073Z,101340.69
2023-02-19T09:28:11.076Z,101350.58
2023-02-19T09:29:11.076Z,101349.91
2023-02-19T09:30:11.146Z,101350.54
2023-02-19T09:31:14.593Z,101352.84
2023-02-19T09:32:11.099Z,101354.64
2023-02-19T09:33:11.074Z,101356.31
2023-02-19T09:34:11.076Z,101360.85
2023-02-19T09:35:11.084Z,101363.90
2023-02-19T09:36:11.076Z,101367.27
2023-02-19T09:37:11.081Z,101373.34
2023-02-19T09:38:11.105Z,101373.87
2023-02-19T09:39:11.075Z,101374.16
2023-02-19T09:40:11.078Z,101373.47
2023-02-19T09:41:19.080Z,101375.44
2023-02-19T09:42:22.082Z,101374.46
2023-02-19T09:43:14.076Z,101377.78
2023-02-19T09:44:13.082Z,101381.18
2023-02-19T09:45:19.090Z,101380.02
2023-02-19T09:46:19.124Z,101377.26
2023-02-19T09:47:19.229Z,101378.02
2023-02-19T09:48:11.125Z,101386.05
2023-02-19T09:49:21.088Z,101393.21
2023-02-19T09:50:12.085Z,101395.69
2023-02-19T09:51:11.338Z,101398.00
2023-02-19T09:52:25.078Z,101399.92
2023-02-19T09:53:19.082Z,101394.70
2023-02-19T09:54:19.083Z,101393.64
2023-02-19T09:55:22.076Z,101394.12
2023-02-19T09:56:11.078Z,101396.49
2023-02-19T09:57:18.076Z,101400.04
2023-02-19T09:58:19.093Z,101394.50
2023-02-19T09:59:19.079Z,101390.14
2023-02-19T10:00:22.061Z,101391.92
2023-02-19T10:01:12.504Z,101392.14
2023-02-19T10:02:18.066Z,101390.23
2023-02-19T10:03:19.060Z,101393.84
2023-02-19T10:04:11.063Z,101394.55
2023-02-19T10:05:14.101Z,101398.82
2023-02-19T10:06:18.066Z,101399.17
2023-02-19T10:07:16.059Z,101399.45
2023-02-19T10:08:16.054Z,101396.93
2023-02-19T10:09:19.061Z,101398.46
2023-02-19T10:10:19.061Z,101404.16
2023-02-19T10:11:13.450Z,101407.64
2023-02-19T10:12:15.055Z,101414.91
2023-02-19T10:13:20.067Z,101418.70
2023-02-19T10:14:21.067Z,101417.29
2023-02-19T10:15:21.060Z,101412.29
2023-02-19T10:16:13.144Z,101406.88
2023-02-19T10:17:22.061Z,101399.03
2023-02-19T10:18:11.304Z,101391.02
2023-02-19T10:19:16.075Z,101391.90
2023-02-19T10:20:15.078Z,101387.66
2023-02-19T10:21:15.063Z,101387.77
2023-02-19T10:22:11.060Z,101383.94
2023-02-19T10:23:13.058Z,101386.42
2023-02-19T10:24:16.058Z,101387.27
2023-02-19T10:25:14.066Z,101399.41
2023-02-19T10:26:11.057Z,101401.70
2023-02-19T10:27:15.065Z,101404.98
2023-02-19T10:28:14.067Z,101411.37
2023-02-19T10:29:11.069Z,101405.02
2023-02-19T10:30:18.117Z,101398.88
2023-02-19T10:31:22.165Z,101405.13
2023-02-19T10:32:22.113Z,101403.89
2023-02-19T10:33:17.064Z,101405.07
2023-02-19T10:34:18.069Z,101406.77
2023-02-19T10:35:14.075Z,101401.73
2023-02-19T10:36:22.071Z,101401.03
2023-02-19T10:37:14.063Z,101406.21
2023-02-19T10:38:17.061Z,101406.92
2023-02-19T10:39:19.065Z,101406.70
2023-02-19T10:40:17.063Z,101404.76
2023-02-19T10:41:14.071Z,101404.86
2023-02-19T10:42:19.062Z,101402.18
2023-02-19T10:43:19.068Z,101402.47
2023-02-19T10:44:15.077Z,101402.97
2023-02-19T10:45:22.065Z,101401.15
2023-02-19T10:46:19.113Z,101403.04
2023-02-19T10:47:15.059Z,101405.09
2023-02-19T10:48:19.066Z,101405.14
2023-02-19T10:49:19.066Z,101405.76
2023-02-19T10:50:19.063Z,101401.18
2023-02-19T10:51:12.334Z,101394.98
2023-02-19T10:52:15.065Z,101390.50
2023-02-19T10:53:19.066Z,101388.90
2023-02-19T10:54:19.080Z,101379.55
2023-02-19T10:55:19.068Z,101387.90
2023-02-19T10:56:19.077Z,101382.91
2023-02-19T10:57:19.079Z,101378.54
2023-02-19T10:58:19.073Z,101382.22
2023-02-19T10:59:19.066Z,101379.71
2023-02-19T11:00:22.072Z,101379.19
2023-02-19T11:01:18.074Z,101378.55
2023-02-19T11:02:18.073Z,101374.30
2023-02-19T11:03:18.071Z,101377.62
2023-02-19T11:04:16.094Z,101374.05
2023-02-19T11:05:17.130Z,101375.27
2023-02-19T11:06:12.072Z,101378.64
2023-02-19T11:07:16.205Z,101377.87
2023-02-19T11:08:19.061Z,101383.26
2023-02-19T11:09:19.067Z,101385.53
2023-02-19T11:10:19.078Z,101391.04
2023-02-19T11:11:11.422Z,101388.79
2023-02-19T11:12:11.062Z,101383.64
2023-02-19T11:13:22.071Z,101380.59
2023-02-19T11:14:19.066Z,101374.45
2023-02-19T11:15:19.065Z,101380.47
2023-02-19T11:16:11.071Z,101385.69
2023-02-19T11:17:19.069Z,101385.00
2023-02-19T11:18:19.067Z,101389.18
2023-02-19T11:19:19.063Z,101385.90
2023-02-19T11:20:16.129Z,101382.27
2023-02-19T11:21:19.068Z,101380.76
2023-02-19T11:22:19.067Z,101387.63
2023-02-19T11:23:17.089Z,101387.29
2023-02-19T11:24:19.062Z,101388.07